sensor_id;sensor_type;location;lat;lon;timestamp;P1;durP1;ratioP1;P2;durP2;ratioP2
57551;SDS011;43379;48.160;14.036;2023-04-15T00:02:00;5.20;;;4.80;;
57551;SDS011;43379;48.160;14.036;2023-04-15T00:04:26;4.80;;;4.40;;
57551;SDS011;43379;48.160;14.036;2023-04-15T00:06:52;5.07;;;4.67;;
57551;SDS011;43379;48.160;14.036;2023-04-15T00:09:18;5.60;;;4.30;;
57551;SDS011;43379;48.160;14.036;2023-04-15T00:11:45;4.97;;;4.50;;
57551;SDS011;43379;48.160;14.036;2023-04-15T00:14:11;4.77;;;4.47;;
57551;SDS011;43379;48.160;14.036;2023-04-15T00:16:37;5.00;;;4.60;;
57551;SDS011;43379;48.160;14.036;2023-04-15T00:19:03;5.33;;;4.93;;
57551;SDS011;43379;48.160;14.036;2023-04-15T00:21:29;5.20;;;4.80;;
57551;SDS011;43379;48.160;14.036;2023-04-15T00:23:55;4.63;;;4.33;;
57551;SDS011;43379;48.160;14.036;2023-04-15T00:26:20;3.90;;;3.60;;
57551;SDS011;43379;48.160;14.036;2023-04-15T00:28:46;4.80;;;4.50;;
57551;SDS011;43379;48.160;14.036;2023-04-15T00:31:12;3.90;;;3.70;;
57551;SDS011;43379;48.160;14.036;2023-04-15T00:33:38;5.00;;;4.47;;
57551;SDS011;43379;48.160;14.036;2023-04-15T00:36:05;4.10;;;3.80;;
57551;SDS011;43379;48.160;14.036;2023-04-15T00:38:31;4.30;;;4.00;;
57551;SDS011;43379;48.160;14.036;2023-04-15T00:40:57;3.90;;;3.70;;
57551;SDS011;43379;48.160;14.036;2023-04-15T00:43:23;4.30;;;3.90;;
57551;SDS011;43379;48.160;14.036;2023-04-15T00:45:50;4.73;;;4.10;;
57551;SDS011;43379;48.160;14.036;2023-04-15T00:48:17;4.20;;;3.90;;
57551;SDS011;43379;48.160;14.036;2023-04-15T00:50:44;4.00;;;3.70;;
57551;SDS011;43379;48.160;14.036;2023-04-15T00:53:10;3.40;;;3.20;;
57551;SDS011;43379;48.160;14.036;2023-04-15T00:55:36;4.13;;;3.83;;
57551;SDS011;43379;48.160;14.036;2023-04-15T00:58:02;4.27;;;3.93;;
57551;SDS011;43379;48.160;14.036;2023-04-15T01:00:28;4.17;;;3.87;;
57551;SDS011;43379;48.160;14.036;2023-04-15T01:02:54;4.30;;;3.90;;
57551;SDS011;43379;48.160;14.036;2023-04-15T01:05:20;4.30;;;4.00;;
57551;SDS011;43379;48.160;14.036;2023-04-15T01:07:46;4.50;;;4.20;;
57551;SDS011;43379;48.160;14.036;2023-04-15T01:10:12;4.77;;;4.40;;
57551;SDS011;43379;48.160;14.036;2023-04-15T01:12:38;4.53;;;4.20;;
57551;SDS011;43379;48.160;14.036;2023-04-15T01:15:04;5.10;;;4.80;;
57551;SDS011;43379;48.160;14.036;2023-04-15T01:17:30;4.57;;;4.27;;
57551;SDS011;43379;48.160;14.036;2023-04-15T01:19:56;5.13;;;4.80;;
57551;SDS011;43379;48.160;14.036;2023-04-15T01:22:23;5.10;;;4.70;;
57551;SDS011;43379;48.160;14.036;2023-04-15T01:24:54;5.13;;;4.57;;
57551;SDS011;43379;48.160;14.036;2023-04-15T01:27:47;5.60;;;5.10;;
57551;SDS011;43379;48.160;14.036;2023-04-15T01:30:12;4.73;;;4.33;;
57551;SDS011;43379;48.160;14.036;2023-04-15T01:32:38;5.00;;;4.60;;
57551;SDS011;43379;48.160;14.036;2023-04-15T01:35:04;4.90;;;4.50;;
57551;SDS011;43379;48.160;14.036;2023-04-15T01:37:30;4.67;;;4.27;;
57551;SDS011;43379;48.160;14.036;2023-04-15T01:39:56;4.73;;;4.43;;
57551;SDS011;43379;48.160;14.036;2023-04-15T01:42:22;4.80;;;4.40;;
57551;SDS011;43379;48.160;14.036;2023-04-15T01:44:48;4.37;;;4.07;;
57551;SDS011;43379;48.160;14.036;2023-04-15T01:47:14;4.77;;;4.27;;
57551;SDS011;43379;48.160;14.036;2023-04-15T01:49:39;4.40;;;4.10;;
57551;SDS011;43379;48.160;14.036;2023-04-15T01:52:05;4.57;;;4.20;;
57551;SDS011;43379;48.160;14.036;2023-04-15T01:54:31;5.10;;;4.60;;
57551;SDS011;43379;48.160;14.036;2023-04-15T01:56:57;4.30;;;3.90;;
57551;SDS011;43379;48.160;14.036;2023-04-15T01:59:23;4.27;;;3.97;;
57551;SDS011;43379;48.160;14.036;2023-04-15T02:01:48;4.97;;;4.57;;
57551;SDS011;43379;48.160;14.036;2023-04-15T02:04:14;5.50;;;4.97;;
57551;SDS011;43379;48.160;14.036;2023-04-15T02:06:43;5.23;;;4.80;;
57551;SDS011;43379;48.160;14.036;2023-04-15T02:09:10;4.30;;;4.00;;
57551;SDS011;43379;48.160;14.036;2023-04-15T02:11:36;5.20;;;4.80;;
57551;SDS011;43379;48.160;14.036;2023-04-15T02:14:03;5.00;;;4.60;;
57551;SDS011;43379;48.160;14.036;2023-04-15T02:16:29;7.63;;;5.20;;
57551;SDS011;43379;48.160;14.036;2023-04-15T02:18:56;5.47;;;5.07;;
57551;SDS011;43379;48.160;14.036;2023-04-15T02:21:21;5.13;;;4.73;;
57551;SDS011;43379;48.160;14.036;2023-04-15T02:23:47;5.87;;;5.37;;
57551;SDS011;43379;48.160;14.036;2023-04-15T02:26:13;6.30;;;5.80;;
57551;SDS011;43379;48.160;14.036;2023-04-15T02:28:39;7.10;;;6.50;;
57551;SDS011;43379;48.160;14.036;2023-04-15T02:31:05;5.80;;;5.40;;
57551;SDS011;43379;48.160;14.036;2023-04-15T02:33:31;6.30;;;5.80;;
57551;SDS011;43379;48.160;14.036;2023-04-15T02:35:57;7.13;;;6.43;;
57551;SDS011;43379;48.160;14.036;2023-04-15T02:38:23;6.00;;;5.50;;
57551;SDS011;43379;48.160;14.036;2023-04-15T02:40:49;6.40;;;5.93;;
57551;SDS011;43379;48.160;14.036;2023-04-15T02:43:15;7.20;;;6.60;;
57551;SDS011;43379;48.160;14.036;2023-04-15T02:45:41;6.10;;;5.63;;
57551;SDS011;43379;48.160;14.036;2023-04-15T02:48:07;6.87;;;5.37;;
57551;SDS011;43379;48.160;14.036;2023-04-15T02:50:33;4.93;;;4.53;;
57551;SDS011;43379;48.160;14.036;2023-04-15T02:53:00;4.83;;;4.43;;
57551;SDS011;43379;48.160;14.036;2023-04-15T02:55:26;3.63;;;3.33;;
57551;SDS011;43379;48.160;14.036;2023-04-15T02:57:52;4.77;;;4.37;;
57551;SDS011;43379;48.160;14.036;2023-04-15T03:00:18;3.77;;;3.47;;
57551;SDS011;43379;48.160;14.036;2023-04-15T03:02:45;4.17;;;3.77;;
57551;SDS011;43379;48.160;14.036;2023-04-15T03:05:14;4.03;;;3.73;;
57551;SDS011;43379;48.160;14.036;2023-04-15T03:07:39;4.73;;;4.30;;
57551;SDS011;43379;48.160;14.036;2023-04-15T03:10:06;4.23;;;3.87;;
57551;SDS011;43379;48.160;14.036;2023-04-15T03:12:32;4.43;;;4.10;;
57551;SDS011;43379;48.160;14.036;2023-04-15T03:14:57;5.30;;;4.53;;
57551;SDS011;43379;48.160;14.036;2023-04-15T03:17:24;4.60;;;4.17;;
57551;SDS011;43379;48.160;14.036;2023-04-15T03:19:50;5.50;;;5.03;;
57551;SDS011;43379;48.160;14.036;2023-04-15T03:22:15;5.73;;;5.33;;
57551;SDS011;43379;48.160;14.036;2023-04-15T03:24:41;5.47;;;5.03;;
57551;SDS011;43379;48.160;14.036;2023-04-15T03:27:06;5.43;;;5.03;;
57551;SDS011;43379;48.160;14.036;2023-04-15T03:29:33;5.10;;;4.70;;
57551;SDS011;43379;48.160;14.036;2023-04-15T03:31:59;5.87;;;5.37;;
57551;SDS011;43379;48.160;14.036;2023-04-15T03:34:24;5.70;;;5.30;;
57551;SDS011;43379;48.160;14.036;2023-04-15T03:36:50;6.47;;;5.97;;
57551;SDS011;43379;48.160;14.036;2023-04-15T03:39:16;5.10;;;4.70;;
57551;SDS011;43379;48.160;14.036;2023-04-15T03:41:41;4.80;;;4.30;;
57551;SDS011;43379;48.160;14.036;2023-04-15T03:44:07;5.03;;;4.53;;
57551;SDS011;43379;48.160;14.036;2023-04-15T03:46:33;5.40;;;4.90;;
57551;SDS011;43379;48.160;14.036;2023-04-15T03:48:58;4.53;;;4.00;;
57551;SDS011;43379;48.160;14.036;2023-04-15T03:51:24;4.43;;;4.13;;
57551;SDS011;43379;48.160;14.036;2023-04-15T03:53:50;4.20;;;3.90;;
57551;SDS011;43379;48.160;14.036;2023-04-15T03:56:16;3.80;;;3.60;;
57551;SDS011;43379;48.160;14.036;2023-04-15T03:58:41;3.83;;;3.53;;
57551;SDS011;43379;48.160;14.036;2023-04-15T04:01:07;4.17;;;3.87;;
57551;SDS011;43379;48.160;14.036;2023-04-15T04:03:33;4.43;;;3.93;;
57551;SDS011;43379;48.160;14.036;2023-04-15T04:05:59;4.27;;;3.97;;
57551;SDS011;43379;48.160;14.036;2023-04-15T04:08:24;4.43;;;4.03;;
57551;SDS011;43379;48.160;14.036;2023-04-15T04:10:51;4.23;;;3.60;;
57551;SDS011;43379;48.160;14.036;2023-04-15T04:13:17;3.83;;;3.47;;
57551;SDS011;43379;48.160;14.036;2023-04-15T04:15:42;3.53;;;3.23;;
57551;SDS011;43379;48.160;14.036;2023-04-15T04:18:08;3.80;;;3.50;;
57551;SDS011;43379;48.160;14.036;2023-04-15T04:20:34;3.20;;;3.00;;
57551;SDS011;43379;48.160;14.036;2023-04-15T04:22:59;3.83;;;3.30;;
57551;SDS011;43379;48.160;14.036;2023-04-15T04:25:25;3.10;;;2.90;;
57551;SDS011;43379;48.160;14.036;2023-04-15T04:27:51;2.93;;;2.73;;
57551;SDS011;43379;48.160;14.036;2023-04-15T04:30:17;2.97;;;2.30;;
57551;SDS011;43379;48.160;14.036;2023-04-15T04:32:42;2.37;;;1.90;;
57551;SDS011;43379;48.160;14.036;2023-04-15T04:35:08;2.33;;;2.23;;
57551;SDS011;43379;48.160;14.036;2023-04-15T04:37:33;4.13;;;2.10;;
57551;SDS011;43379;48.160;14.036;2023-04-15T04:39:59;2.20;;;2.10;;
57551;SDS011;43379;48.160;14.036;2023-04-15T04:42:25;2.57;;;2.37;;
57551;SDS011;43379;48.160;14.036;2023-04-15T04:44:50;2.50;;;2.30;;
57551;SDS011;43379;48.160;14.036;2023-04-15T04:47:16;2.80;;;2.60;;
57551;SDS011;43379;48.160;14.036;2023-04-15T04:49:42;2.90;;;2.70;;
57551;SDS011;43379;48.160;14.036;2023-04-15T04:52:07;3.00;;;2.73;;
57551;SDS011;43379;48.160;14.036;2023-04-15T04:54:34;3.47;;;3.27;;
57551;SDS011;43379;48.160;14.036;2023-04-15T04:56:59;2.47;;;2.27;;
57551;SDS011;43379;48.160;14.036;2023-04-15T04:59:25;3.90;;;3.70;;
57551;SDS011;43379;48.160;14.036;2023-04-15T05:01:51;3.10;;;2.90;;
57551;SDS011;43379;48.160;14.036;2023-04-15T05:04:17;3.03;;;2.83;;
57551;SDS011;43379;48.160;14.036;2023-04-15T05:06:42;3.53;;;3.33;;
57551;SDS011;43379;48.160;14.036;2023-04-15T05:09:08;4.10;;;3.70;;
57551;SDS011;43379;48.160;14.036;2023-04-15T05:11:34;4.30;;;4.00;;
57551;SDS011;43379;48.160;14.036;2023-04-15T05:13:59;3.67;;;3.37;;
57551;SDS011;43379;48.160;14.036;2023-04-15T05:16:26;3.70;;;3.40;;
57551;SDS011;43379;48.160;14.036;2023-04-15T05:18:52;3.90;;;3.60;;
57551;SDS011;43379;48.160;14.036;2023-04-15T05:21:18;3.43;;;3.13;;
57551;SDS011;43379;48.160;14.036;2023-04-15T05:23:44;5.10;;;4.70;;
57551;SDS011;43379;48.160;14.036;2023-04-15T05:26:10;3.90;;;3.60;;
57551;SDS011;43379;48.160;14.036;2023-04-15T05:28:35;4.00;;;3.70;;
57551;SDS011;43379;48.160;14.036;2023-04-15T05:31:01;4.10;;;3.80;;
57551;SDS011;43379;48.160;14.036;2023-04-15T05:33:27;3.80;;;3.50;;
57551;SDS011;43379;48.160;14.036;2023-04-15T05:35:53;3.53;;;3.23;;
57551;SDS011;43379;48.160;14.036;2023-04-15T05:38:19;3.40;;;3.20;;
57551;SDS011;43379;48.160;14.036;2023-04-15T05:40:45;3.37;;;3.17;;
57551;SDS011;43379;48.160;14.036;2023-04-15T05:43:11;3.00;;;2.80;;
57551;SDS011;43379;48.160;14.036;2023-04-15T05:45:36;2.80;;;2.50;;
57551;SDS011;43379;48.160;14.036;2023-04-15T05:48:02;2.93;;;2.73;;
57551;SDS011;43379;48.160;14.036;2023-04-15T05:50:28;2.77;;;2.57;;
57551;SDS011;43379;48.160;14.036;2023-04-15T05:52:53;3.10;;;2.90;;
57551;SDS011;43379;48.160;14.036;2023-04-15T05:55:20;2.97;;;2.77;;
57551;SDS011;43379;48.160;14.036;2023-04-15T05:57:46;2.77;;;2.57;;
57551;SDS011;43379;48.160;14.036;2023-04-15T06:00:11;3.17;;;2.97;;
57551;SDS011;43379;48.160;14.036;2023-04-15T06:02:38;3.07;;;2.87;;
57551;SDS011;43379;48.160;14.036;2023-04-15T06:05:04;2.80;;;2.60;;
57551;SDS011;43379;48.160;14.036;2023-04-15T06:07:33;2.97;;;2.77;;
57551;SDS011;43379;48.160;14.036;2023-04-15T06:10:01;3.30;;;3.07;;
57551;SDS011;43379;48.160;14.036;2023-04-15T06:12:27;2.83;;;2.63;;
57551;SDS011;43379;48.160;14.036;2023-04-15T06:14:53;3.57;;;3.27;;
57551;SDS011;43379;48.160;14.036;2023-04-15T06:17:19;3.80;;;3.50;;
57551;SDS011;43379;48.160;14.036;2023-04-15T06:19:45;3.20;;;3.00;;
57551;SDS011;43379;48.160;14.036;2023-04-15T06:22:10;4.00;;;3.70;;
57551;SDS011;43379;48.160;14.036;2023-04-15T06:24:36;3.87;;;3.60;;
57551;SDS011;43379;48.160;14.036;2023-04-15T06:27:02;3.23;;;3.03;;
57551;SDS011;43379;48.160;14.036;2023-04-15T06:29:27;3.80;;;3.50;;
57551;SDS011;43379;48.160;14.036;2023-04-15T06:31:53;3.87;;;3.57;;
57551;SDS011;43379;48.160;14.036;2023-04-15T06:34:20;3.33;;;3.03;;
57551;SDS011;43379;48.160;14.036;2023-04-15T06:36:46;4.00;;;2.83;;
57551;SDS011;43379;48.160;14.036;2023-04-15T06:39:12;3.30;;;3.10;;
57551;SDS011;43379;48.160;14.036;2023-04-15T06:41:38;3.70;;;3.40;;
57551;SDS011;43379;48.160;14.036;2023-04-15T06:44:03;4.73;;;4.33;;
57551;SDS011;43379;48.160;14.036;2023-04-15T06:46:29;3.63;;;3.40;;
57551;SDS011;43379;48.160;14.036;2023-04-15T06:48:55;3.47;;;3.27;;
57551;SDS011;43379;48.160;14.036;2023-04-15T06:51:21;2.73;;;2.53;;
57551;SDS011;43379;48.160;14.036;2023-04-15T06:53:47;2.87;;;2.67;;
57551;SDS011;43379;48.160;14.036;2023-04-15T06:56:13;2.40;;;2.20;;
57551;SDS011;43379;48.160;14.036;2023-04-15T06:58:39;2.80;;;2.60;;
57551;SDS011;43379;48.160;14.036;2023-04-15T07:01:04;3.53;;;3.23;;
57551;SDS011;43379;48.160;14.036;2023-04-15T07:03:30;3.33;;;2.87;;
57551;SDS011;43379;48.160;14.036;2023-04-15T07:05:56;8.53;;;3.57;;
57551;SDS011;43379;48.160;14.036;2023-04-15T07:08:22;3.40;;;3.10;;
57551;SDS011;43379;48.160;14.036;2023-04-15T07:10:48;2.87;;;2.67;;
57551;SDS011;43379;48.160;14.036;2023-04-15T07:13:14;2.30;;;2.20;;
57551;SDS011;43379;48.160;14.036;2023-04-15T07:15:40;2.90;;;2.70;;
57551;SDS011;43379;48.160;14.036;2023-04-15T07:18:05;1.97;;;1.80;;
57551;SDS011;43379;48.160;14.036;2023-04-15T07:20:31;2.43;;;2.33;;
57551;SDS011;43379;48.160;14.036;2023-04-15T07:22:57;1.93;;;1.60;;
57551;SDS011;43379;48.160;14.036;2023-04-15T07:25:23;2.73;;;2.53;;
57551;SDS011;43379;48.160;14.036;2023-04-15T07:27:48;2.37;;;2.17;;
57551;SDS011;43379;48.160;14.036;2023-04-15T07:30:14;2.43;;;2.23;;
57551;SDS011;43379;48.160;14.036;2023-04-15T07:32:40;2.07;;;1.97;;
57551;SDS011;43379;48.160;14.036;2023-04-15T07:35:06;2.43;;;2.23;;
57551;SDS011;43379;48.160;14.036;2023-04-15T07:37:33;2.53;;;2.40;;
57551;SDS011;43379;48.160;14.036;2023-04-15T07:39:59;3.17;;;2.90;;
57551;SDS011;43379;48.160;14.036;2023-04-15T07:42:25;2.67;;;2.47;;
57551;SDS011;43379;48.160;14.036;2023-04-15T07:44:51;2.23;;;2.10;;
57551;SDS011;43379;48.160;14.036;2023-04-15T07:47:16;2.33;;;2.20;;
57551;SDS011;43379;48.160;14.036;2023-04-15T07:49:42;2.63;;;2.43;;
57551;SDS011;43379;48.160;14.036;2023-04-15T07:52:08;3.13;;;2.70;;
57551;SDS011;43379;48.160;14.036;2023-04-15T07:54:34;2.53;;;2.37;;
57551;SDS011;43379;48.160;14.036;2023-04-15T07:56:59;2.03;;;1.93;;
57551;SDS011;43379;48.160;14.036;2023-04-15T07:59:25;2.80;;;2.60;;
57551;SDS011;43379;48.160;14.036;2023-04-15T08:01:54;2.70;;;2.57;;
57551;SDS011;43379;48.160;14.036;2023-04-15T08:04:19;2.80;;;2.60;;
57551;SDS011;43379;48.160;14.036;2023-04-15T08:06:45;3.10;;;2.80;;
57551;SDS011;43379;48.160;14.036;2023-04-15T08:09:12;2.47;;;2.20;;
57551;SDS011;43379;48.160;14.036;2023-04-15T08:11:37;2.80;;;2.60;;
57551;SDS011;43379;48.160;14.036;2023-04-15T08:14:03;3.37;;;2.80;;
57551;SDS011;43379;48.160;14.036;2023-04-15T08:16:29;3.33;;;3.03;;
57551;SDS011;43379;48.160;14.036;2023-04-15T08:18:55;2.87;;;2.67;;
57551;SDS011;43379;48.160;14.036;2023-04-15T08:21:21;3.07;;;2.87;;
57551;SDS011;43379;48.160;14.036;2023-04-15T08:23:48;2.37;;;2.20;;
57551;SDS011;43379;48.160;14.036;2023-04-15T08:26:14;3.10;;;2.80;;
57551;SDS011;43379;48.160;14.036;2023-04-15T08:28:41;3.20;;;2.80;;
57551;SDS011;43379;48.160;14.036;2023-04-15T08:31:08;1.87;;;1.77;;
57551;SDS011;43379;48.160;14.036;2023-04-15T08:33:33;2.10;;;2.00;;
57551;SDS011;43379;48.160;14.036;2023-04-15T08:35:59;2.47;;;2.37;;
57551;SDS011;43379;48.160;14.036;2023-04-15T08:38:25;2.13;;;2.00;;
57551;SDS011;43379;48.160;14.036;2023-04-15T08:40:51;2.13;;;1.90;;
57551;SDS011;43379;48.160;14.036;2023-04-15T08:43:23;2.43;;;2.23;;
57551;SDS011;43379;48.160;14.036;2023-04-15T08:45:53;2.03;;;1.83;;
57551;SDS011;43379;48.160;14.036;2023-04-15T08:48:19;2.40;;;2.20;;
57551;SDS011;43379;48.160;14.036;2023-04-15T08:50:46;3.00;;;2.47;;
57551;SDS011;43379;48.160;14.036;2023-04-15T08:53:12;2.80;;;2.13;;
57551;SDS011;43379;48.160;14.036;2023-04-15T08:55:43;2.47;;;2.27;;
57551;SDS011;43379;48.160;14.036;2023-04-15T08:58:10;2.17;;;2.07;;
57551;SDS011;43379;48.160;14.036;2023-04-15T09:00:38;1.80;;;1.70;;
57551;SDS011;43379;48.160;14.036;2023-04-15T09:03:05;2.83;;;2.10;;
57551;SDS011;43379;48.160;14.036;2023-04-15T09:05:33;2.07;;;1.97;;
57551;SDS011;43379;48.160;14.036;2023-04-15T09:08:00;2.00;;;1.90;;
57551;SDS011;43379;48.160;14.036;2023-04-15T09:10:26;2.10;;;2.00;;
57551;SDS011;43379;48.160;14.036;2023-04-15T09:12:53;2.13;;;2.03;;
57551;SDS011;43379;48.160;14.036;2023-04-15T09:15:19;2.30;;;1.83;;
57551;SDS011;43379;48.160;14.036;2023-04-15T09:17:46;1.97;;;1.87;;
57551;SDS011;43379;48.160;14.036;2023-04-15T09:20:13;1.90;;;1.80;;
57551;SDS011;43379;48.160;14.036;2023-04-15T09:22:41;1.80;;;1.70;;
57551;SDS011;43379;48.160;14.036;2023-04-15T09:27:51;1.73;;;1.63;;
57551;SDS011;43379;48.160;14.036;2023-04-15T09:30:18;2.00;;;1.90;;
57551;SDS011;43379;48.160;14.036;2023-04-15T09:32:54;1.77;;;1.67;;
57551;SDS011;43379;48.160;14.036;2023-04-15T09:35:21;1.70;;;1.60;;
57551;SDS011;43379;48.160;14.036;2023-04-15T09:37:48;1.90;;;1.80;;
57551;SDS011;43379;48.160;14.036;2023-04-15T09:40:14;2.57;;;2.37;;
57551;SDS011;43379;48.160;14.036;2023-04-15T09:42:54;1.90;;;1.80;;
57551;SDS011;43379;48.160;14.036;2023-04-15T09:45:20;2.70;;;1.70;;
57551;SDS011;43379;48.160;14.036;2023-04-15T09:47:47;1.70;;;1.60;;
57551;SDS011;43379;48.160;14.036;2023-04-15T09:50:12;1.97;;;1.80;;
57551;SDS011;43379;48.160;14.036;2023-04-15T09:52:42;2.40;;;2.20;;
57551;SDS011;43379;48.160;14.036;2023-04-15T09:55:09;2.10;;;2.00;;
57551;SDS011;43379;48.160;14.036;2023-04-15T09:57:36;2.50;;;2.30;;
57551;SDS011;43379;48.160;14.036;2023-04-15T10:00:03;2.10;;;1.93;;
57551;SDS011;43379;48.160;14.036;2023-04-15T10:02:30;2.20;;;2.00;;
57551;SDS011;43379;48.160;14.036;2023-04-15T10:04:56;2.70;;;2.30;;
57551;SDS011;43379;48.160;14.036;2023-04-15T10:07:23;2.57;;;2.40;;
57551;SDS011;43379;48.160;14.036;2023-04-15T10:09:50;2.13;;;2.03;;
57551;SDS011;43379;48.160;14.036;2023-04-15T10:12:17;1.80;;;1.70;;
57551;SDS011;43379;48.160;14.036;2023-04-15T10:14:44;2.20;;;2.00;;
57551;SDS011;43379;48.160;14.036;2023-04-15T10:17:16;2.20;;;2.10;;
57551;SDS011;43379;48.160;14.036;2023-04-15T10:19:45;2.33;;;2.13;;
57551;SDS011;43379;48.160;14.036;2023-04-15T10:22:12;2.33;;;2.23;;
57551;SDS011;43379;48.160;14.036;2023-04-15T10:24:38;2.90;;;2.37;;
57551;SDS011;43379;48.160;14.036;2023-04-15T10:27:04;2.60;;;2.40;;
57551;SDS011;43379;48.160;14.036;2023-04-15T10:29:31;2.30;;;2.20;;
57551;SDS011;43379;48.160;14.036;2023-04-15T10:31:57;2.80;;;2.50;;
57551;SDS011;43379;48.160;14.036;2023-04-15T10:34:24;3.07;;;2.77;;
57551;SDS011;43379;48.160;14.036;2023-04-15T10:36:54;3.30;;;2.93;;
57551;SDS011;43379;48.160;14.036;2023-04-15T10:42:05;3.20;;;3.00;;
57551;SDS011;43379;48.160;14.036;2023-04-15T10:44:32;2.70;;;2.50;;
57551;SDS011;43379;48.160;14.036;2023-04-15T10:47:00;4.27;;;3.87;;
57551;SDS011;43379;48.160;14.036;2023-04-15T10:49:34;3.37;;;3.07;;
57551;SDS011;43379;48.160;14.036;2023-04-15T10:52:17;2.97;;;2.77;;
57551;SDS011;43379;48.160;14.036;2023-04-15T10:55:01;3.47;;;3.17;;
57551;SDS011;43379;48.160;14.036;2023-04-15T10:57:43;3.20;;;3.00;;
57551;SDS011;43379;48.160;14.036;2023-04-15T11:00:13;3.13;;;2.93;;
57551;SDS011;43379;48.160;14.036;2023-04-15T11:02:41;3.03;;;2.83;;
57551;SDS011;43379;48.160;14.036;2023-04-15T11:05:08;3.20;;;3.00;;
57551;SDS011;43379;48.160;14.036;2023-04-15T11:12:41;2.30;;;2.20;;
57551;SDS011;43379;48.160;14.036;2023-04-15T11:17:57;2.73;;;1.80;;
57551;SDS011;43379;48.160;14.036;2023-04-15T11:20:24;2.00;;;1.80;;
57551;SDS011;43379;48.160;14.036;2023-04-15T11:22:51;2.07;;;1.97;;
57551;SDS011;43379;48.160;14.036;2023-04-15T11:25:22;3.20;;;1.93;;
57551;SDS011;43379;48.160;14.036;2023-04-15T11:27:49;2.13;;;2.00;;
57551;SDS011;43379;48.160;14.036;2023-04-15T11:30:21;2.87;;;2.67;;
57551;SDS011;43379;48.160;14.036;2023-04-15T11:32:49;2.40;;;2.23;;
57551;SDS011;43379;48.160;14.036;2023-04-15T11:35:16;2.13;;;2.03;;
57551;SDS011;43379;48.160;14.036;2023-04-15T11:37:45;2.00;;;1.90;;
57551;SDS011;43379;48.160;14.036;2023-04-15T11:40:13;2.53;;;2.37;;
57551;SDS011;43379;48.160;14.036;2023-04-15T11:42:41;2.20;;;2.07;;
57551;SDS011;43379;48.160;14.036;2023-04-15T11:45:11;3.70;;;2.70;;
57551;SDS011;43379;48.160;14.036;2023-04-15T11:47:39;2.27;;;2.10;;
57551;SDS011;43379;48.160;14.036;2023-04-15T11:50:26;1.90;;;1.80;;
57551;SDS011;43379;48.160;14.036;2023-04-15T11:52:52;1.97;;;1.87;;
57551;SDS011;43379;48.160;14.036;2023-04-15T11:55:25;2.03;;;1.93;;
57551;SDS011;43379;48.160;14.036;2023-04-15T12:00:37;2.60;;;2.40;;
57551;SDS011;43379;48.160;14.036;2023-04-15T12:03:13;2.40;;;2.20;;
57551;SDS011;43379;48.160;14.036;2023-04-15T12:06:10;2.30;;;2.13;;
57551;SDS011;43379;48.160;14.036;2023-04-15T12:14:04;3.00;;;2.80;;
57551;SDS011;43379;48.160;14.036;2023-04-15T12:16:41;2.37;;;2.17;;
57551;SDS011;43379;48.160;14.036;2023-04-15T12:19:11;4.03;;;2.80;;
57551;SDS011;43379;48.160;14.036;2023-04-15T12:21:40;2.27;;;2.17;;
57551;SDS011;43379;48.160;14.036;2023-04-15T12:24:09;2.97;;;2.77;;
57551;SDS011;43379;48.160;14.036;2023-04-15T12:29:09;2.80;;;2.60;;
57551;SDS011;43379;48.160;14.036;2023-04-15T12:31:42;2.40;;;2.20;;
57551;SDS011;43379;48.160;14.036;2023-04-15T12:34:39;2.60;;;2.40;;
57551;SDS011;43379;48.160;14.036;2023-04-15T12:37:09;2.97;;;2.77;;
57551;SDS011;43379;48.160;14.036;2023-04-15T12:39:37;3.23;;;2.30;;
57551;SDS011;43379;48.160;14.036;2023-04-15T12:42:05;2.43;;;2.23;;
57551;SDS011;43379;48.160;14.036;2023-04-15T12:44:31;2.20;;;2.10;;
57551;SDS011;43379;48.160;14.036;2023-04-15T12:46:57;3.07;;;2.20;;
57551;SDS011;43379;48.160;14.036;2023-04-15T12:49:24;3.73;;;3.43;;
57551;SDS011;43379;48.160;14.036;2023-04-15T12:51:51;2.60;;;2.40;;
57551;SDS011;43379;48.160;14.036;2023-04-15T12:54:19;2.30;;;2.20;;
57551;SDS011;43379;48.160;14.036;2023-04-15T12:56:45;1.97;;;1.87;;
57551;SDS011;43379;48.160;14.036;2023-04-15T12:59:13;2.57;;;2.37;;
57551;SDS011;43379;48.160;14.036;2023-04-15T13:01:40;3.70;;;2.23;;
57551;SDS011;43379;48.160;14.036;2023-04-15T13:04:05;2.70;;;2.50;;
57551;SDS011;43379;48.160;14.036;2023-04-15T13:06:31;2.80;;;2.60;;
57551;SDS011;43379;48.160;14.036;2023-04-15T13:09:01;2.97;;;2.77;;
57551;SDS011;43379;48.160;14.036;2023-04-15T13:11:27;2.70;;;2.50;;
57551;SDS011;43379;48.160;14.036;2023-04-15T13:13:58;2.37;;;2.17;;
57551;SDS011;43379;48.160;14.036;2023-04-15T13:16:25;2.63;;;2.43;;
57551;SDS011;43379;48.160;14.036;2023-04-15T13:18:51;4.07;;;2.87;;
57551;SDS011;43379;48.160;14.036;2023-04-15T13:21:17;2.67;;;2.47;;
57551;SDS011;43379;48.160;14.036;2023-04-15T13:23:43;4.40;;;4.00;;
57551;SDS011;43379;48.160;14.036;2023-04-15T13:26:09;3.37;;;3.17;;
57551;SDS011;43379;48.160;14.036;2023-04-15T13:28:34;3.50;;;2.80;;
57551;SDS011;43379;48.160;14.036;2023-04-15T13:31:01;2.50;;;2.30;;
57551;SDS011;43379;48.160;14.036;2023-04-15T13:33:26;3.07;;;2.80;;
57551;SDS011;43379;48.160;14.036;2023-04-15T13:35:52;2.80;;;2.60;;
57551;SDS011;43379;48.160;14.036;2023-04-15T13:38:18;3.00;;;2.80;;
57551;SDS011;43379;48.160;14.036;2023-04-15T13:40:44;3.33;;;3.03;;
57551;SDS011;43379;48.160;14.036;2023-04-15T13:43:10;2.83;;;2.63;;
57551;SDS011;43379;48.160;14.036;2023-04-15T13:45:36;3.50;;;3.30;;
57551;SDS011;43379;48.160;14.036;2023-04-15T13:48:02;4.13;;;3.37;;
57551;SDS011;43379;48.160;14.036;2023-04-15T13:50:28;4.97;;;4.57;;
57551;SDS011;43379;48.160;14.036;2023-04-15T13:52:53;6.20;;;4.50;;
57551;SDS011;43379;48.160;14.036;2023-04-15T13:55:19;11.20;;;8.03;;
57551;SDS011;43379;48.160;14.036;2023-04-15T13:57:45;7.97;;;7.17;;
57551;SDS011;43379;48.160;14.036;2023-04-15T14:00:11;7.90;;;6.87;;
57551;SDS011;43379;48.160;14.036;2023-04-15T14:02:38;5.60;;;5.20;;
57551;SDS011;43379;48.160;14.036;2023-04-15T14:05:04;4.53;;;4.17;;
57551;SDS011;43379;48.160;14.036;2023-04-15T14:07:30;3.90;;;3.60;;
57551;SDS011;43379;48.160;14.036;2023-04-15T14:09:56;3.60;;;3.27;;
57551;SDS011;43379;48.160;14.036;2023-04-15T14:12:21;3.87;;;3.50;;
57551;SDS011;43379;48.160;14.036;2023-04-15T14:14:47;3.20;;;3.00;;
57551;SDS011;43379;48.160;14.036;2023-04-15T14:17:13;4.00;;;3.70;;
57551;SDS011;43379;48.160;14.036;2023-04-15T14:19:38;4.43;;;4.03;;
57551;SDS011;43379;48.160;14.036;2023-04-15T14:22:04;3.10;;;2.90;;
57551;SDS011;43379;48.160;14.036;2023-04-15T14:24:30;3.53;;;3.23;;
57551;SDS011;43379;48.160;14.036;2023-04-15T14:26:56;3.50;;;3.30;;
57551;SDS011;43379;48.160;14.036;2023-04-15T14:29:22;3.43;;;3.13;;
57551;SDS011;43379;48.160;14.036;2023-04-15T14:31:48;3.73;;;3.43;;
57551;SDS011;43379;48.160;14.036;2023-04-15T14:34:14;3.80;;;3.50;;
57551;SDS011;43379;48.160;14.036;2023-04-15T14:36:41;4.43;;;3.37;;
57551;SDS011;43379;48.160;14.036;2023-04-15T14:39:07;5.80;;;5.20;;
57551;SDS011;43379;48.160;14.036;2023-04-15T14:41:33;5.60;;;5.00;;
57551;SDS011;43379;48.160;14.036;2023-04-15T14:43:59;6.43;;;4.47;;
57551;SDS011;43379;48.160;14.036;2023-04-15T14:46:25;4.70;;;4.20;;
57551;SDS011;43379;48.160;14.036;2023-04-15T14:48:51;5.67;;;5.17;;
57551;SDS011;43379;48.160;14.036;2023-04-15T14:51:17;5.47;;;4.97;;
57551;SDS011;43379;48.160;14.036;2023-04-15T14:53:43;5.50;;;5.10;;
57551;SDS011;43379;48.160;14.036;2023-04-15T14:56:10;6.63;;;5.90;;